Terminal Aerodrome Forecast
Issued by NWS Binghamton, NY

Home | Current Version | Previous Version | Text Only | Print | Product List | Glossary On
Versions: 1 2 3 4 5 6 7 8 9 10 11 12 13 14 15 16 17 18 19 20 21 22
000
FTUS41 KBGM 012300
TAFBGM
TAF
KBGM 012335Z 0200/0224 05004KT 1 1/2SM -SN OVC015
      TEMPO 0203/0206 1/2SM SN OVC009
     FM020600 12011KT 1/2SM SN OVC007
     FM021300 09009KT 1SM -SN OVC009
     FM021600 33012G20KT 5SM -SHSN OVC020=

USA.gov is the U.S. government's official web portal to all federal, state and local government web resources and services.